Time,TemperatureF,DewpointF,PressureIn,WindDirection,WindDirectionDegrees,WindSpeedMPH,WindSpeedGustMPH,Humidity,HourlyPrecipIn,Conditions,Clouds,dailyrainin,SoftwareType,DateUTC
2013-07-19 00:01:00,65.0,46.0,-100.00,North,-999,0.0,0.0,50,-99.99,,,-99.99,,2013-07-19 07:01:00,
2013-07-19 00:12:00,65.0,46.0,-100.00,North,-999,0.0,0.0,50,-99.99,,,-99.99,,2013-07-19 07:12:00,
2013-07-19 00:22:00,64.0,45.0,-100.00,North,-999,0.0,0.0,51,-99.99,,,-99.99,,2013-07-19 07:22:00,
2013-07-19 00:32:00,64.0,45.0,-100.00,North,-999,0.0,0.0,51,-99.99,,,-99.99,,2013-07-19 07:32:00,
2013-07-19 00:43:00,62.0,45.0,-100.00,North,-999,0.0,0.0,53,-99.99,,,-99.99,,2013-07-19 07:43:00,
2013-07-19 00:53:00,62.0,45.0,-100.00,North,-999,0.0,0.0,53,-99.99,,,-99.99,,2013-07-19 07:53:00,
2013-07-19 01:01:00,61.0,44.0,-100.00,North,-999,0.0,0.0,54,-99.99,,,-99.99,,2013-07-19 08:01:00,
2013-07-19 01:11:00,61.0,44.0,-100.00,North,-999,0.0,0.0,54,-99.99,,,-99.99,,2013-07-19 08:11:00,
2013-07-19 01:22:00,61.0,44.0,-100.00,North,-999,0.0,0.0,55,-99.99,,,-99.99,,2013-07-19 08:22:00,
2013-07-19 01:32:00,61.0,44.0,-100.00,North,-999,0.0,0.0,55,-99.99,,,-99.99,,2013-07-19 08:32:00,
2013-07-19 01:43:00,59.0,43.0,-100.00,North,-999,0.0,0.0,57,-99.99,,,-99.99,,2013-07-19 08:43:00,
2013-07-19 01:52:00,59.0,43.0,-100.00,North,-999,0.0,0.0,57,-99.99,,,-99.99,,2013-07-19 08:52:00,
2013-07-19 02:11:00,58.0,43.0,-100.00,North,-999,0.0,0.0,58,-99.99,,,-99.99,,2013-07-19 09:11:00,
2013-07-19 02:22:00,58.0,43.0,-100.00,North,-999,0.0,0.0,59,-99.99,,,-99.99,,2013-07-19 09:22:00,
2013-07-19 02:32:00,58.0,43.0,-100.00,North,-999,0.0,0.0,59,-99.99,,,-99.99,,2013-07-19 09:32:00,
2013-07-19 02:52:00,56.0,43.0,-100.00,North,-999,0.0,0.0,61,-99.99,,,-99.99,,2013-07-19 09:52:00,
2013-07-19 03:01:00,55.0,42.0,-100.00,North,-999,0.0,0.0,61,-99.99,,,-99.99,,2013-07-19 10:01:00,
2013-07-19 03:11:00,55.0,42.0,-100.00,North,-999,0.0,0.0,61,-99.99,,,-99.99,,2013-07-19 10:11:00,
2013-07-19 03:22:00,54.0,41.0,-100.00,North,-999,0.0,0.0,62,-99.99,,,-99.99,,2013-07-19 10:22:00,
2013-07-19 03:43:00,52.0,40.0,-100.00,North,-999,0.0,0.0,62,-99.99,,,-99.99,,2013-07-19 10:43:00,
2013-07-19 03:52:00,52.0,40.0,-100.00,North,-999,0.0,0.0,62,-99.99,,,-99.99,,2013-07-19 10:52:00,
2013-07-19 04:02:00,52.0,39.0,-100.00,North,-999,0.0,0.0,62,-99.99,,,-99.99,,2013-07-19 11:02:00,
2013-07-19 04:12:00,52.0,39.0,-100.00,North,-999,0.0,0.0,62,-99.99,,,-99.99,,2013-07-19 11:12:00,
2013-07-19 04:22:00,51.0,38.0,-100.00,North,-999,0.0,0.0,61,-99.99,,,-99.99,,2013-07-19 11:22:00,
2013-07-19 04:32:00,51.0,37.0,-100.00,North,-999,0.0,0.0,59,-99.99,,,-99.99,,2013-07-19 11:32:00,
2013-07-19 04:43:00,50.0,36.0,-100.00,North,-999,0.0,0.0,58,-99.99,,,-99.99,,2013-07-19 11:43:00,
2013-07-19 04:52:00,50.0,36.0,-100.00,North,-999,0.0,0.0,58,-99.99,,,-99.99,,2013-07-19 11:52:00,
2013-07-19 05:01:00,50.0,36.0,-100.00,North,-999,0.0,0.0,58,-99.99,,,-99.99,,2013-07-19 12:01:00,
2013-07-19 05:12:00,49.0,35.0,-100.00,North,-999,0.0,0.0,57,-99.99,,,-99.99,,2013-07-19 12:12:00,
2013-07-19 05:22:00,49.0,35.0,-100.00,North,-999,0.0,0.0,57,-99.99,,,-99.99,,2013-07-19 12:22:00,
2013-07-19 05:32:00,49.0,35.0,-100.00,North,-999,0.0,0.0,57,-99.99,,,-99.99,,2013-07-19 12:32:00,
2013-07-19 05:43:00,49.0,34.0,-100.00,North,-999,0.0,0.0,56,-99.99,,,-99.99,,2013-07-19 12:43:00,
2013-07-19 05:52:00,49.0,34.0,-100.00,North,-999,0.0,0.0,56,-99.99,,,-99.99,,2013-07-19 12:52:00,
2013-07-19 06:11:00,49.0,34.0,-100.00,North,-999,0.0,0.0,56,-99.99,,,-99.99,,2013-07-19 13:11:00,
2013-07-19 06:22:00,49.0,34.0,-100.00,North,-999,0.0,0.0,56,-99.99,,,-99.99,,2013-07-19 13:22:00,
2013-07-19 06:53:00,48.0,34.0,-100.00,North,-999,0.0,0.0,57,-99.99,,,-99.99,,2013-07-19 13:53:00,
2013-07-19 07:11:00,50.0,35.0,-100.00,North,-999,0.0,0.0,57,-99.99,,,-99.99,,2013-07-19 14:11:00,
2013-07-19 08:11:00,59.0,42.0,-100.00,North,-999,0.0,0.0,53,-99.99,,,-99.99,,2013-07-19 15:11:00,
2013-07-19 08:22:00,61.0,42.0,-100.00,North,-999,0.0,0.0,51,-99.99,,,-99.99,,2013-07-19 15:22:00,
2013-07-19 08:32:00,61.0,42.0,-100.00,North,-999,0.0,0.0,51,-99.99,,,-99.99,,2013-07-19 15:32:00,
2013-07-19 09:01:00,69.0,39.0,-100.00,North,-999,0.0,0.0,34,-99.99,,,-99.99,,2013-07-19 16:01:00,
2013-07-19 09:22:00,70.0,39.0,-100.00,North,-999,0.0,0.0,32,-99.99,,,-99.99,,2013-07-19 16:22:00,
2013-07-19 09:32:00,71.0,39.0,-100.00,North,-999,0.0,0.0,31,-99.99,,,-99.99,,2013-07-19 16:32:00,
2013-07-19 09:43:00,73.0,40.0,-100.00,North,-999,0.0,0.0,30,-99.99,,,-99.99,,2013-07-19 16:43:00,
2013-07-19 09:52:00,73.0,40.0,-100.00,North,-999,0.0,0.0,30,-99.99,,,-99.99,,2013-07-19 16:52:00,
2013-07-19 10:02:00,74.0,41.0,-100.00,North,-999,0.0,0.0,30,-99.99,,,-99.99,,2013-07-19 17:02:00,
2013-07-19 10:11:00,74.0,41.0,-100.00,North,-999,0.0,0.0,30,-99.99,,,-99.99,,2013-07-19 17:11:00,
2013-07-19 10:22:00,76.0,40.0,-100.00,North,-999,0.0,0.0,28,-99.99,,,-99.99,,2013-07-19 17:22:00,
2013-07-19 21:22:00,78.0,36.0,-100.00,North,-999,0.0,0.0,22,-99.99,,,-99.99,,2013-07-20 04:22:00,
2013-07-19 21:33:00,76.0,36.0,-100.00,North,-999,0.0,0.0,23,-99.99,,,-99.99,,2013-07-20 04:33:00,
2013-07-19 21:52:00,75.0,36.0,-100.00,North,-999,0.0,0.0,24,-99.99,,,-99.99,,2013-07-20 04:52:00,
2013-07-19 22:02:00,76.0,37.0,-100.00,North,-999,0.0,0.0,25,-99.99,,,-99.99,,2013-07-20 05:02:00,
2013-07-19 22:11:00,76.0,37.0,-100.00,North,-999,0.0,0.0,25,-99.99,,,-99.99,,2013-07-20 05:11:00,
2013-07-19 22:22:00,75.0,40.0,-100.00,North,-999,0.0,0.0,28,-99.99,,,-99.99,,2013-07-20 05:22:00,
2013-07-19 22:32:00,73.0,39.0,-100.00,North,-999,0.0,0.0,30,-99.99,,,-99.99,,2013-07-20 05:32:00,
2013-07-19 22:52:00,71.0,41.0,-100.00,North,-999,0.0,0.0,33,-99.99,,,-99.99,,2013-07-20 05:52:00,
2013-07-19 23:01:00,69.0,40.0,-100.00,North,-999,0.0,0.0,35,-99.99,,,-99.99,,2013-07-20 06:01:00,
2013-07-19 23:11:00,69.0,40.0,-100.00,North,-999,0.0,0.0,35,-99.99,,,-99.99,,2013-07-20 06:11:00,
2013-07-19 23:21:00,67.0,40.0,-100.00,North,-999,0.0,0.0,37,-99.99,,,-99.99,,2013-07-20 06:21:00,
2013-07-19 23:32:00,67.0,40.0,-100.00,North,-999,0.0,0.0,37,-99.99,,,-99.99,,2013-07-20 06:32:00,
2013-07-19 23:43:00,64.0,41.0,-100.00,North,-999,0.0,0.0,42,-99.99,,,-99.99,,2013-07-20 06:43:00,
2013-07-19 23:52:00,64.0,41.0,-100.00,North,-999,0.0,0.0,42,-99.99,,,-99.99,,2013-07-20 06:52:00,